createdAt,value
2019-03-24T00:00:33.979Z,100.00
2019-03-24T00:03:03.568Z,100.00
2019-03-24T00:05:33.058Z,100.00
2019-03-24T00:08:02.588Z,100.00
2019-03-24T00:10:32.110Z,100.00
2019-03-24T00:13:01.624Z,100.00
2019-03-24T00:15:31.253Z,100.00
2019-03-24T00:18:00.752Z,100.00
2019-03-24T00:20:30.282Z,100.00
2019-03-24T00:22:59.784Z,100.00
2019-03-24T00:25:31.957Z,100.00
2019-03-24T00:28:01.454Z,100.00
2019-03-24T00:30:30.963Z,100.00
2019-03-24T00:33:00.516Z,100.00
2019-03-24T00:35:30.107Z,100.00
2019-03-24T00:37:59.619Z,100.00
2019-03-24T00:40:30.778Z,100.00
2019-03-24T00:43:00.270Z,100.00
2019-03-24T00:45:36.790Z,100.00
2019-03-24T00:48:01.075Z,100.00
2019-03-24T00:50:30.641Z,100.00
2019-03-24T00:53:00.131Z,100.00
2019-03-24T00:55:29.646Z,100.00
2019-03-24T00:57:59.163Z,100.00
2019-03-24T01:00:44.193Z,100.00
2019-03-24T01:03:14.640Z,100.00
2019-03-24T01:05:44.545Z,100.00
2019-03-24T01:08:15.067Z,100.00
2019-03-24T01:10:44.656Z,100.00
2019-03-24T01:13:15.377Z,100.00
2019-03-24T01:15:47.850Z,100.00
2019-03-24T01:18:16.449Z,100.00
2019-03-24T01:20:46.005Z,100.00
2019-03-24T01:23:15.600Z,100.00
2019-03-24T01:25:45.151Z,100.00
2019-03-24T01:28:14.743Z,100.00
2019-03-24T01:30:44.309Z,100.00
2019-03-24T01:33:13.952Z,100.00
2019-03-24T01:35:43.477Z,100.00
2019-03-24T01:38:12.998Z,100.00
2019-03-24T01:40:42.502Z,100.00
2019-03-24T01:43:12.063Z,100.00
2019-03-24T01:45:41.587Z,100.00
2019-03-24T01:48:11.150Z,100.00
2019-03-24T01:50:40.677Z,100.00
2019-03-24T01:53:10.240Z,100.00
2019-03-24T01:55:39.808Z,100.00
2019-03-24T01:58:09.438Z,100.00
2019-03-24T02:00:39.209Z,100.00
2019-03-24T02:03:08.770Z,100.00
2019-03-24T02:05:38.334Z,100.00
2019-03-24T02:08:07.900Z,100.00
2019-03-24T02:10:37.386Z,100.00
2019-03-24T02:13:07.095Z,100.00
2019-03-24T02:15:36.652Z,100.00
2019-03-24T02:18:06.248Z,100.00
2019-03-24T02:20:35.757Z,100.00
2019-03-24T02:23:05.447Z,100.00
2019-03-24T02:25:34.994Z,100.00
2019-03-24T02:28:04.517Z,100.00
2019-03-24T02:30:34.025Z,100.00
2019-03-24T02:33:03.537Z,100.00
2019-03-24T02:35:33.153Z,100.00
2019-03-24T02:38:02.751Z,100.00
2019-03-24T02:40:32.309Z,100.00
2019-03-24T02:43:01.913Z,100.00
2019-03-24T02:45:31.476Z,100.00
2019-03-24T02:48:00.963Z,100.00
2019-03-24T02:50:30.451Z,100.00
2019-03-24T02:52:59.995Z,100.00
2019-03-24T02:55:29.511Z,100.00
2019-03-24T02:57:59.056Z,100.00
2019-03-24T03:00:28.857Z,100.00
2019-03-24T03:02:58.353Z,100.00
2019-03-24T03:05:27.908Z,100.00
2019-03-24T03:07:57.472Z,100.00
2019-03-24T03:10:27.069Z,100.00
2019-03-24T03:12:56.561Z,100.00
2019-03-24T03:15:26.208Z,100.00
2019-03-24T03:17:55.722Z,100.00
2019-03-24T03:20:25.348Z,100.00
2019-03-24T03:22:54.853Z,100.00
2019-03-24T03:25:24.409Z,100.00
2019-03-24T03:27:54.012Z,100.00
2019-03-24T03:30:23.505Z,100.00
2019-03-24T03:32:53.052Z,100.00
2019-03-24T03:35:22.576Z,100.00
2019-03-24T03:37:52.116Z,100.00
2019-03-24T03:40:21.677Z,100.00
2019-03-24T03:42:51.160Z,100.00
2019-03-24T03:45:28.620Z,100.00
2019-03-24T03:47:58.110Z,100.00
2019-03-24T03:50:27.770Z,100.00
2019-03-24T03:52:57.433Z,100.00
2019-03-24T03:55:26.950Z,100.00
2019-03-24T03:57:56.470Z,100.00
2019-03-24T04:00:38.721Z,100.00
2019-03-24T04:03:08.873Z,100.00
2019-03-24T04:05:38.357Z,100.00
2019-03-24T04:08:08.006Z,100.00
2019-03-24T04:10:37.581Z,100.00
2019-03-24T04:13:07.160Z,100.00
2019-03-24T04:15:36.918Z,100.00
2019-03-24T04:18:06.409Z,100.00
2019-03-24T04:20:35.994Z,100.00
2019-03-24T04:23:05.487Z,100.00
2019-03-24T04:25:34.991Z,100.00
2019-03-24T04:28:04.657Z,100.00
2019-03-24T04:30:34.150Z,100.00
2019-03-24T04:33:03.661Z,100.00
2019-03-24T04:35:33.241Z,100.00
2019-03-24T04:38:02.742Z,100.00
2019-03-24T04:40:32.229Z,100.00
2019-03-24T04:43:01.796Z,100.00
2019-03-24T04:45:31.331Z,100.00
2019-03-24T04:48:00.829Z,100.00
2019-03-24T04:50:30.413Z,100.00
2019-03-24T04:52:59.903Z,100.00
2019-03-24T04:55:29.487Z,100.00
2019-03-24T04:57:58.989Z,100.00
2019-03-24T05:00:37.294Z,100.00
2019-03-24T05:03:07.195Z,100.00
2019-03-24T05:05:37.517Z,100.00
2019-03-24T05:08:07.101Z,100.00
2019-03-24T05:10:36.612Z,100.00
2019-03-24T05:13:06.126Z,100.00
2019-03-24T05:15:35.647Z,100.00
2019-03-24T05:18:05.363Z,100.00
2019-03-24T05:20:34.943Z,100.00
2019-03-24T05:23:04.610Z,100.00
2019-03-24T05:25:34.213Z,100.00
2019-03-24T05:28:03.754Z,100.00
2019-03-24T05:30:33.280Z,100.00
2019-03-24T05:33:02.767Z,100.00
2019-03-24T05:35:32.290Z,100.00
2019-03-24T05:38:01.815Z,100.00
2019-03-24T05:40:31.380Z,100.00
2019-03-24T05:43:01.000Z,100.00
2019-03-24T05:45:30.542Z,100.00
2019-03-24T05:48:00.065Z,100.00
2019-03-24T05:50:29.554Z,100.00
2019-03-24T05:52:59.037Z,100.00
2019-03-24T05:55:28.541Z,100.00
2019-03-24T05:57:58.209Z,100.00
2019-03-24T06:00:27.805Z,100.00
2019-03-24T06:02:57.428Z,100.00
2019-03-24T06:05:26.983Z,100.00
2019-03-24T06:07:56.475Z,100.00
2019-03-24T06:10:26.003Z,100.00
2019-03-24T06:12:55.490Z,100.00
2019-03-24T06:15:24.995Z,100.00
2019-03-24T06:17:54.571Z,100.00
2019-03-24T06:20:24.058Z,100.00
2019-03-24T06:22:53.550Z,100.00
2019-03-24T06:25:23.103Z,100.00
2019-03-24T06:27:52.591Z,100.00
2019-03-24T06:30:22.151Z,100.00
2019-03-24T06:32:51.653Z,100.00
2019-03-24T06:35:21.153Z,100.00
2019-03-24T06:37:50.661Z,100.00
2019-03-24T06:40:20.243Z,100.00
2019-03-24T06:42:55.355Z,100.00
2019-03-24T06:45:28.805Z,100.00
2019-03-24T06:47:58.076Z,100.00
2019-03-24T06:50:27.485Z,100.00
2019-03-24T06:52:56.988Z,100.00
2019-03-24T06:55:26.484Z,100.00
2019-03-24T06:57:55.985Z,100.00
2019-03-24T07:00:25.479Z,100.00
2019-03-24T07:02:54.966Z,100.00
2019-03-24T07:05:24.608Z,100.00
2019-03-24T07:07:54.296Z,100.00
2019-03-24T07:10:24.094Z,100.00
2019-03-24T07:12:53.614Z,100.00
2019-03-24T07:15:23.255Z,100.00
2019-03-24T07:17:52.843Z,100.00
2019-03-24T07:20:22.387Z,100.00
2019-03-24T07:22:51.965Z,100.00
2019-03-24T07:25:21.457Z,100.00
2019-03-24T07:27:50.953Z,100.00
2019-03-24T07:30:20.927Z,100.00
2019-03-24T07:32:50.463Z,100.00
2019-03-24T07:35:19.945Z,100.00
2019-03-24T07:37:49.469Z,100.00
2019-03-24T07:40:19.182Z,100.00
2019-03-24T07:42:48.678Z,100.00
2019-03-24T07:45:18.332Z,100.00
2019-03-24T07:47:49.095Z,100.00
2019-03-24T07:50:18.863Z,100.00
2019-03-24T07:52:48.568Z,100.00
2019-03-24T07:55:18.074Z,100.00
2019-03-24T07:57:47.669Z,100.00
2019-03-24T08:00:35.976Z,100.00
2019-03-24T08:03:05.755Z,100.00
2019-03-24T08:05:35.337Z,100.00
2019-03-24T08:08:04.853Z,100.00
2019-03-24T08:10:34.453Z,100.00
2019-03-24T08:13:03.978Z,100.00
2019-03-24T08:15:33.551Z,100.00
2019-03-24T08:18:03.107Z,98.36
2019-03-24T08:20:32.691Z,99.06
2019-03-24T08:23:02.262Z,98.96
2019-03-24T08:25:31.817Z,97.00
2019-03-24T08:28:01.404Z,100.00
2019-03-24T08:30:35.766Z,98.01
2019-03-24T08:33:05.566Z,99.00
2019-03-24T08:35:35.076Z,96.77
2019-03-24T08:38:04.930Z,96.75
2019-03-24T08:40:34.633Z,96.21
2019-03-24T08:43:04.330Z,95.06
2019-03-24T08:45:33.970Z,94.03
2019-03-24T08:48:03.563Z,95.08
2019-03-24T08:50:33.129Z,91.90
2019-03-24T08:53:02.664Z,90.23
2019-03-24T08:55:32.170Z,86.31
2019-03-24T08:58:01.651Z,87.84
2019-03-24T09:00:31.266Z,89.57
2019-03-24T09:03:00.848Z,86.33
2019-03-24T09:05:30.360Z,87.16
2019-03-24T09:07:59.944Z,88.37
2019-03-24T09:10:30.457Z,89.22
2019-03-24T09:13:00.119Z,88.87
2019-03-24T09:15:29.618Z,88.28
2019-03-24T09:17:59.164Z,87.88
2019-03-24T09:20:29.546Z,88.96
2019-03-24T09:22:59.066Z,87.43
2019-03-24T09:25:28.732Z,86.59
2019-03-24T09:27:58.447Z,88.01
2019-03-24T09:30:30.861Z,86.66
2019-03-24T09:33:00.435Z,85.62
2019-03-24T09:35:30.011Z,85.23
2019-03-24T09:37:59.764Z,86.49
2019-03-24T09:40:33.299Z,85.32
2019-03-24T09:43:04.226Z,84.42
2019-03-24T09:45:33.905Z,84.26
2019-03-24T09:48:03.815Z,81.32
2019-03-24T09:50:33.514Z,80.01
2019-03-24T09:53:03.136Z,78.85
2019-03-24T09:55:32.657Z,75.75
2019-03-24T09:58:02.217Z,76.01
2019-03-24T10:00:31.748Z,74.74
2019-03-24T10:03:01.462Z,72.17
2019-03-24T10:05:31.070Z,72.52
2019-03-24T10:08:00.591Z,72.83
2019-03-24T10:10:30.093Z,71.99
2019-03-24T10:12:59.692Z,73.14
2019-03-24T10:15:29.201Z,73.06
2019-03-24T10:17:58.721Z,73.56
2019-03-24T10:20:28.291Z,75.24
2019-03-24T10:22:57.902Z,74.55
2019-03-24T10:25:27.491Z,74.71
2019-03-24T10:27:57.043Z,72.17
2019-03-24T10:30:26.569Z,72.20
2019-03-24T10:32:56.119Z,69.91
2019-03-24T10:35:25.691Z,67.62
2019-03-24T10:37:55.282Z,67.43
2019-03-24T10:40:28.852Z,67.72
2019-03-24T10:42:56.001Z,66.18
2019-03-24T10:45:25.582Z,63.13
2019-03-24T10:47:55.084Z,57.43
2019-03-24T10:50:24.737Z,58.01
2019-03-24T10:52:54.229Z,58.88
2019-03-24T10:55:23.756Z,62.12
2019-03-24T10:57:53.256Z,65.32
2019-03-24T11:00:39.189Z,61.88
2019-03-24T11:03:08.742Z,61.98
2019-03-24T11:05:38.312Z,62.23
2019-03-24T11:08:08.069Z,59.48
2019-03-24T11:10:37.709Z,60.39
2019-03-24T11:13:07.403Z,60.39
2019-03-24T11:15:37.064Z,59.79
2019-03-24T11:18:06.749Z,55.80
2019-03-24T11:20:36.388Z,57.03
2019-03-24T11:23:05.949Z,53.27
2019-03-24T11:25:35.453Z,53.91
2019-03-24T11:28:05.247Z,52.53
2019-03-24T11:30:34.826Z,53.00
2019-03-24T11:33:04.501Z,53.22
2019-03-24T11:35:34.028Z,53.34
2019-03-24T11:38:03.585Z,50.86
2019-03-24T11:40:33.094Z,50.67
2019-03-24T11:43:02.656Z,48.62
2019-03-24T11:45:32.297Z,48.84
2019-03-24T11:48:01.828Z,47.28
2019-03-24T11:50:31.327Z,45.79
2019-03-24T11:53:00.897Z,46.42
2019-03-24T11:55:30.415Z,47.88
2019-03-24T11:58:05.654Z,49.38
2019-03-24T12:00:36.589Z,52.02
2019-03-24T12:03:06.343Z,50.10
2019-03-24T12:05:35.926Z,48.26
2019-03-24T12:08:05.786Z,46.42
2019-03-24T12:10:35.411Z,47.06
2019-03-24T12:13:05.168Z,48.79
2019-03-24T12:15:34.861Z,48.36
2019-03-24T12:18:05.231Z,46.64
2019-03-24T12:20:35.054Z,48.37
2019-03-24T12:23:04.654Z,48.47
2019-03-24T12:25:34.218Z,50.77
2019-03-24T12:28:03.771Z,50.83
2019-03-24T12:30:33.289Z,49.70
2019-03-24T12:33:02.858Z,53.61
2019-03-24T12:35:32.378Z,57.54
2019-03-24T12:38:01.978Z,58.78
2019-03-24T12:40:31.494Z,59.39
2019-03-24T12:43:01.098Z,58.00
2019-03-24T12:45:30.611Z,56.67
2019-03-24T12:48:00.168Z,56.00
2019-03-24T12:50:31.578Z,55.13
2019-03-24T12:53:00.909Z,55.23
2019-03-24T12:55:30.409Z,55.99
2019-03-24T12:57:59.917Z,55.27
2019-03-24T13:00:36.096Z,55.65
2019-03-24T13:03:06.911Z,55.65
2019-03-24T13:05:36.452Z,55.48
2019-03-24T13:08:14.037Z,53.34
2019-03-24T13:10:44.074Z,53.70
2019-03-24T13:13:13.831Z,53.11
2019-03-24T13:15:43.394Z,51.43
2019-03-24T13:18:13.024Z,49.51
2019-03-24T13:20:42.545Z,49.01
2019-03-24T13:23:12.228Z,47.73
2019-03-24T13:25:42.282Z,45.99
2019-03-24T13:28:11.823Z,44.57
2019-03-24T13:30:41.412Z,46.03
2019-03-24T13:33:10.862Z,46.88
2019-03-24T13:35:40.736Z,46.24
2019-03-24T13:38:10.287Z,46.17
2019-03-24T13:40:39.896Z,43.90
2019-03-24T13:43:09.379Z,46.52
2019-03-24T13:45:38.938Z,44.71
2019-03-24T13:48:08.452Z,44.36
2019-03-24T13:50:38.048Z,44.56
2019-03-24T13:53:07.635Z,43.21
2019-03-24T13:55:37.125Z,43.13
2019-03-24T13:58:07.088Z,43.46
2019-03-24T14:00:36.567Z,44.50
2019-03-24T14:03:06.103Z,42.38
2019-03-24T14:05:35.645Z,43.40
2019-03-24T14:08:05.309Z,44.05
2019-03-24T14:10:34.913Z,44.06
2019-03-24T14:13:04.393Z,43.89
2019-03-24T14:15:34.134Z,44.44
2019-03-24T14:18:05.554Z,43.46
2019-03-24T14:20:43.416Z,44.39
2019-03-24T14:23:06.416Z,46.34
2019-03-24T14:25:36.019Z,44.75
2019-03-24T14:28:05.502Z,44.96
2019-03-24T14:30:49.696Z,46.24
2019-03-24T14:33:19.609Z,44.72
2019-03-24T14:35:49.166Z,43.38
2019-03-24T14:38:18.833Z,42.45
2019-03-24T14:40:48.387Z,41.14
2019-03-24T14:43:18.300Z,39.64
2019-03-24T14:45:47.827Z,40.39
2019-03-24T14:48:17.318Z,39.04
2019-03-24T14:50:54.501Z,39.73
2019-03-24T14:53:18.090Z,37.93
2019-03-24T14:55:47.641Z,36.84
2019-03-24T14:58:17.227Z,36.48
2019-03-24T15:00:47.356Z,37.75
2019-03-24T15:03:16.893Z,37.79
2019-03-24T15:05:46.418Z,39.53
2019-03-24T15:08:15.966Z,37.25
2019-03-24T15:10:45.621Z,36.53
2019-03-24T15:13:15.129Z,37.00
2019-03-24T15:15:44.683Z,35.23
2019-03-24T15:18:14.906Z,35.39
2019-03-24T15:20:44.455Z,34.85
2019-03-24T15:23:14.046Z,35.49
2019-03-24T15:25:43.696Z,36.98
2019-03-24T15:28:13.254Z,37.08
2019-03-24T15:30:42.905Z,36.42
2019-03-24T15:33:12.437Z,37.27
2019-03-24T15:35:41.927Z,35.89
2019-03-24T15:38:11.732Z,37.11
2019-03-24T15:40:41.302Z,36.14
2019-03-24T15:43:10.873Z,37.37
2019-03-24T15:45:40.551Z,37.58
2019-03-24T15:48:10.098Z,35.85
2019-03-24T15:50:39.606Z,36.51
2019-03-24T15:53:09.150Z,36.73
2019-03-24T15:55:38.697Z,37.73
2019-03-24T15:58:08.209Z,37.81
2019-03-24T16:00:46.267Z,35.97
2019-03-24T16:03:15.849Z,36.82
2019-03-24T16:05:45.322Z,35.52
2019-03-24T16:08:14.994Z,36.62
2019-03-24T16:10:44.574Z,35.45
2019-03-24T16:13:14.126Z,34.53
2019-03-24T16:15:43.728Z,33.04
2019-03-24T16:18:13.337Z,35.21
2019-03-24T16:20:42.921Z,36.76
2019-03-24T16:23:12.574Z,37.41
2019-03-24T16:25:42.081Z,37.98
2019-03-24T16:28:11.595Z,40.32
2019-03-24T16:30:41.177Z,40.24
2019-03-24T16:33:10.809Z,39.24
2019-03-24T16:35:40.355Z,39.60
2019-03-24T16:38:09.950Z,40.49
2019-03-24T16:40:41.394Z,40.37
2019-03-24T16:43:10.803Z,39.80
2019-03-24T16:45:40.317Z,39.87
2019-03-24T16:48:10.160Z,39.24
2019-03-24T16:50:39.753Z,40.49
2019-03-24T16:53:09.341Z,42.20
2019-03-24T16:55:38.832Z,42.03
2019-03-24T16:58:08.437Z,40.85
2019-03-24T17:00:38.056Z,41.84
2019-03-24T17:03:08.544Z,40.52
2019-03-24T17:05:38.066Z,40.21
2019-03-24T17:08:07.652Z,39.15
2019-03-24T17:10:37.208Z,39.34
2019-03-24T17:13:06.821Z,39.62
2019-03-24T17:15:36.387Z,39.77
2019-03-24T17:18:06.634Z,39.52
2019-03-24T17:20:36.227Z,40.79
2019-03-24T17:23:06.016Z,41.25
2019-03-24T17:25:35.617Z,40.96
2019-03-24T17:28:05.266Z,41.19
2019-03-24T17:30:34.899Z,41.54
2019-03-24T17:33:04.496Z,43.01
2019-03-24T17:35:34.156Z,43.65
2019-03-24T17:38:03.784Z,43.68
2019-03-24T17:40:38.710Z,44.42
2019-03-24T17:43:05.101Z,44.22
2019-03-24T17:45:34.676Z,45.11
2019-03-24T17:48:04.415Z,46.30
2019-03-24T17:50:34.069Z,46.22
2019-03-24T17:53:03.624Z,46.48
2019-03-24T17:55:33.160Z,46.75
2019-03-24T17:58:02.653Z,47.68
2019-03-24T18:00:45.995Z,49.16
2019-03-24T18:03:15.536Z,48.86
2019-03-24T18:05:45.155Z,50.84
2019-03-24T18:08:14.849Z,50.87
2019-03-24T18:10:44.339Z,51.80
2019-03-24T18:13:13.950Z,53.87
2019-03-24T18:15:43.401Z,54.29
2019-03-24T18:18:13.054Z,55.30
2019-03-24T18:20:42.644Z,55.87
2019-03-24T18:23:12.177Z,55.97
2019-03-24T18:25:41.745Z,56.09
2019-03-24T18:28:11.292Z,56.36
2019-03-24T18:30:43.900Z,56.51
2019-03-24T18:33:13.494Z,56.89
2019-03-24T18:35:43.089Z,57.89
2019-03-24T18:38:12.830Z,58.95
2019-03-24T18:40:42.443Z,58.76
2019-03-24T18:43:11.976Z,58.95
2019-03-24T18:45:41.550Z,60.00
2019-03-24T18:48:11.150Z,60.21
2019-03-24T18:50:40.719Z,60.45
2019-03-24T18:53:10.220Z,61.08
2019-03-24T18:55:39.883Z,61.86
2019-03-24T18:58:09.426Z,62.48
2019-03-24T19:00:38.916Z,62.85
2019-03-24T19:03:08.436Z,63.29
2019-03-24T19:05:37.939Z,64.42
2019-03-24T19:08:07.464Z,64.78
2019-03-24T19:10:37.060Z,65.77
2019-03-24T19:13:06.737Z,65.87
2019-03-24T19:15:37.457Z,66.11
2019-03-24T19:18:07.387Z,66.39
2019-03-24T19:20:36.901Z,67.17
2019-03-24T19:23:06.405Z,67.67
2019-03-24T19:25:35.973Z,67.70
2019-03-24T19:28:05.782Z,68.71
2019-03-24T19:30:38.565Z,69.57
2019-03-24T19:33:08.263Z,71.15
2019-03-24T19:35:37.807Z,72.06
2019-03-24T19:38:07.591Z,72.87
2019-03-24T19:40:37.138Z,71.55
2019-03-24T19:43:06.679Z,70.80
2019-03-24T19:45:36.285Z,70.71
2019-03-24T19:48:06.396Z,70.51
2019-03-24T19:50:35.970Z,70.98
2019-03-24T19:53:05.815Z,71.25
2019-03-24T19:55:35.388Z,72.13
2019-03-24T19:58:05.103Z,71.59
2019-03-24T20:00:34.614Z,72.35
2019-03-24T20:03:04.383Z,70.81
2019-03-24T20:05:33.957Z,72.16
2019-03-24T20:08:03.508Z,70.41
2019-03-24T20:10:33.014Z,70.53
2019-03-24T20:13:02.536Z,70.27
2019-03-24T20:15:32.069Z,70.07
2019-03-24T20:18:01.702Z,69.37
2019-03-24T20:20:31.207Z,69.38
2019-03-24T20:23:00.736Z,70.12
2019-03-24T20:25:30.272Z,72.30
2019-03-24T20:27:59.768Z,71.69
2019-03-24T20:30:29.420Z,71.94
2019-03-24T20:32:59.095Z,71.50
2019-03-24T20:35:28.649Z,71.99
2019-03-24T20:37:58.228Z,71.96
2019-03-24T20:40:27.899Z,71.38
2019-03-24T20:42:57.513Z,72.49
2019-03-24T20:45:27.200Z,73.29
2019-03-24T20:47:56.805Z,73.84
2019-03-24T20:50:26.330Z,73.10
2019-03-24T20:53:04.087Z,73.99
2019-03-24T20:55:27.084Z,73.50
2019-03-24T20:57:56.732Z,72.94
2019-03-24T21:00:37.360Z,73.19
2019-03-24T21:03:08.976Z,73.72
2019-03-24T21:05:38.569Z,74.44
2019-03-24T21:08:08.320Z,74.64
2019-03-24T21:10:38.042Z,74.84
2019-03-24T21:13:07.702Z,73.28
2019-03-24T21:15:37.309Z,72.60
2019-03-24T21:18:06.933Z,72.77
2019-03-24T21:20:36.539Z,73.25
2019-03-24T21:23:06.525Z,73.24
2019-03-24T21:25:36.094Z,72.52
2019-03-24T21:28:05.931Z,72.53
2019-03-24T21:30:39.120Z,74.07
2019-03-24T21:33:09.029Z,74.83
2019-03-24T21:35:38.764Z,74.41
2019-03-24T21:38:08.404Z,75.32
2019-03-24T21:40:37.962Z,74.71
2019-03-24T21:43:07.533Z,75.75
2019-03-24T21:45:37.048Z,76.95
2019-03-24T21:48:06.922Z,76.64
2019-03-24T21:50:36.504Z,77.32
2019-03-24T21:53:06.156Z,77.31
2019-03-24T21:55:35.808Z,77.80
2019-03-24T21:58:05.639Z,78.05
2019-03-24T22:00:36.542Z,79.14
2019-03-24T22:03:06.644Z,80.03
2019-03-24T22:05:40.169Z,79.74
2019-03-24T22:08:09.659Z,79.56
2019-03-24T22:10:39.165Z,80.53
2019-03-24T22:13:08.840Z,82.09
2019-03-24T22:15:38.393Z,83.13
2019-03-24T22:18:09.506Z,84.20
2019-03-24T22:20:48.566Z,84.40
2019-03-24T22:23:10.651Z,85.54
2019-03-24T22:25:40.150Z,85.87
2019-03-24T22:28:09.710Z,87.40
2019-03-24T22:30:39.236Z,88.82
2019-03-24T22:33:08.735Z,89.12
2019-03-24T22:35:38.242Z,90.37
2019-03-24T22:38:07.756Z,92.09
2019-03-24T22:40:37.239Z,92.54
2019-03-24T22:43:06.843Z,93.47
2019-03-24T22:45:36.411Z,94.11
2019-03-24T22:48:06.241Z,95.39
2019-03-24T22:50:35.813Z,95.66
2019-03-24T22:53:05.370Z,96.72
2019-03-24T22:55:34.941Z,97.13
2019-03-24T22:58:04.507Z,97.24
2019-03-24T23:00:41.911Z,97.18
2019-03-24T23:03:11.804Z,96.24
2019-03-24T23:05:41.350Z,95.55
2019-03-24T23:08:10.854Z,95.86
2019-03-24T23:10:40.360Z,95.85
2019-03-24T23:13:09.996Z,96.17
2019-03-24T23:15:39.613Z,96.65
2019-03-24T23:18:09.110Z,96.75
2019-03-24T23:20:38.612Z,96.20
2019-03-24T23:23:08.256Z,96.44
2019-03-24T23:25:37.729Z,96.11
2019-03-24T23:28:07.234Z,96.15
2019-03-24T23:30:36.793Z,96.05
2019-03-24T23:33:06.731Z,95.39
2019-03-24T23:35:36.285Z,95.64
2019-03-24T23:38:05.904Z,96.42
2019-03-24T23:40:35.463Z,95.75
2019-03-24T23:43:05.155Z,95.82
2019-03-24T23:45:34.659Z,96.53
2019-03-24T23:48:05.677Z,96.37
2019-03-24T23:50:35.256Z,96.61
2019-03-24T23:53:04.823Z,96.29
2019-03-24T23:55:34.381Z,96.45
2019-03-24T23:58:03.962Z,95.96
